sensor_id;sensor_type;location;lat;lon;timestamp;pressure;altitude;pressure_sealevel;temperature;humidity
79686;BME280;69153;47.918;11.428;2024-02-21T00:00:41;96162.69;;;5.45;58.30
79686;BME280;69153;47.918;11.428;2024-02-21T00:03:07;96161.19;;;5.48;58.31
79686;BME280;69153;47.918;11.428;2024-02-21T00:05:33;96158.97;;;5.50;58.05
79686;BME280;69153;47.918;11.428;2024-02-21T00:07:59;96167.94;;;5.45;58.78
79686;BME280;69153;47.918;11.428;2024-02-21T00:10:25;96161.16;;;5.44;58.46
79686;BME280;69153;47.918;11.428;2024-02-21T00:12:51;96156.97;;;5.39;58.97
79686;BME280;69153;47.918;11.428;2024-02-21T00:15:16;96160.00;;;5.42;58.91
79686;BME280;69153;47.918;11.428;2024-02-21T00:17:43;96158.03;;;5.35;59.23
79686;BME280;69153;47.918;11.428;2024-02-21T00:20:09;96147.94;;;5.37;58.96
79686;BME280;69153;47.918;11.428;2024-02-21T00:22:35;96149.41;;;5.34;59.14
79686;BME280;69153;47.918;11.428;2024-02-21T00:25:01;96149.06;;;5.36;59.01
79686;BME280;69153;47.918;11.428;2024-02-21T00:27:26;96147.94;;;5.37;59.04
79686;BME280;69153;47.918;11.428;2024-02-21T00:29:52;96150.75;;;5.21;59.63
79686;BME280;69153;47.918;11.428;2024-02-21T00:32:17;96138.72;;;5.17;59.95
79686;BME280;69153;47.918;11.428;2024-02-21T00:34:43;96146.13;;;5.11;60.12
79686;BME280;69153;47.918;11.428;2024-02-21T00:37:08;96141.69;;;5.15;59.99
79686;BME280;69153;47.918;11.428;2024-02-21T00:39:34;96129.34;;;5.19;59.80
79686;BME280;69153;47.918;11.428;2024-02-21T00:41:59;96127.44;;;5.16;59.90
79686;BME280;69153;47.918;11.428;2024-02-21T00:44:25;96124.47;;;5.21;59.94
79686;BME280;69153;47.918;11.428;2024-02-21T00:46:51;96132.16;;;5.03;60.57
79686;BME280;69153;47.918;11.428;2024-02-21T00:49:18;96125.88;;;5.12;60.23
79686;BME280;69153;47.918;11.428;2024-02-21T00:51:43;96124.94;;;5.27;59.83
79686;BME280;69153;47.918;11.428;2024-02-21T00:54:08;96125.41;;;5.36;59.55
79686;BME280;69153;47.918;11.428;2024-02-21T00:56:34;96120.16;;;5.36;59.53
79686;BME280;69153;47.918;11.428;2024-02-21T00:58:59;96119.06;;;5.41;59.32
79686;BME280;69153;47.918;11.428;2024-02-21T01:01:25;96124.38;;;5.44;59.40
79686;BME280;69153;47.918;11.428;2024-02-21T01:03:50;96118.38;;;5.44;59.31
79686;BME280;69153;47.918;11.428;2024-02-21T01:06:19;96117.25;;;5.45;59.20
79686;BME280;69153;47.918;11.428;2024-02-21T01:08:49;96110.13;;;5.49;59.29
79686;BME280;69153;47.918;11.428;2024-02-21T01:11:15;96109.88;;;5.57;58.78
79686;BME280;69153;47.918;11.428;2024-02-21T01:13:41;96105.91;;;5.37;59.00
79686;BME280;69153;47.918;11.428;2024-02-21T01:16:07;96104.03;;;5.37;59.13
79686;BME280;69153;47.918;11.428;2024-02-21T01:18:33;96098.81;;;5.41;59.05
79686;BME280;69153;47.918;11.428;2024-02-21T01:20:59;96083.72;;;5.34;59.27
79686;BME280;69153;47.918;11.428;2024-02-21T01:23:25;96091.03;;;5.15;60.05
79686;BME280;69153;47.918;11.428;2024-02-21T01:25:50;96099.31;;;5.20;59.73
79686;BME280;69153;47.918;11.428;2024-02-21T01:28:16;96089.78;;;5.38;58.99
79686;BME280;69153;47.918;11.428;2024-02-21T01:30:42;96085.31;;;5.46;58.89
79686;BME280;69153;47.918;11.428;2024-02-21T01:33:07;96082.34;;;5.48;58.73
79686;BME280;69153;47.918;11.428;2024-02-21T01:35:33;96078.28;;;5.54;58.52
79686;BME280;69153;47.918;11.428;2024-02-21T01:37:59;96080.22;;;5.60;58.59
79686;BME280;69153;47.918;11.428;2024-02-21T01:40:24;96074.91;;;5.53;58.45
79686;BME280;69153;47.918;11.428;2024-02-21T01:42:50;96072.19;;;5.46;58.82
79686;BME280;69153;47.918;11.428;2024-02-21T01:45:15;96076.41;;;5.54;58.62
79686;BME280;69153;47.918;11.428;2024-02-21T01:47:41;96076.06;;;5.56;58.46
79686;BME280;69153;47.918;11.428;2024-02-21T01:50:07;96068.56;;;5.58;58.53
79686;BME280;69153;47.918;11.428;2024-02-21T01:52:34;96069.38;;;5.65;58.29
79686;BME280;69153;47.918;11.428;2024-02-21T01:55:01;96061.19;;;5.74;57.81
79686;BME280;69153;47.918;11.428;2024-02-21T01:57:27;96066.78;;;5.69;58.19
79686;BME280;69153;47.918;11.428;2024-02-21T01:59:54;96062.66;;;5.71;58.23
79686;BME280;69153;47.918;11.428;2024-02-21T02:02:21;96061.63;;;5.80;57.81
79686;BME280;69153;47.918;11.428;2024-02-21T02:04:46;96060.09;;;5.79;57.87
79686;BME280;69153;47.918;11.428;2024-02-21T02:07:12;96056.41;;;5.83;57.97
79686;BME280;69153;47.918;11.428;2024-02-21T02:09:38;96053.06;;;5.90;57.72
79686;BME280;69153;47.918;11.428;2024-02-21T02:12:04;96050.81;;;5.88;57.46
79686;BME280;69153;47.918;11.428;2024-02-21T02:14:29;96043.69;;;5.89;57.72
79686;BME280;69153;47.918;11.428;2024-02-21T02:16:55;96035.06;;;5.92;57.66
79686;BME280;69153;47.918;11.428;2024-02-21T02:19:20;96038.47;;;5.96;57.28
79686;BME280;69153;47.918;11.428;2024-02-21T02:21:50;96030.19;;;5.97;57.54
79686;BME280;69153;47.918;11.428;2024-02-21T02:24:24;96028.03;;;6.06;57.45
79686;BME280;69153;47.918;11.428;2024-02-21T02:26:50;96028.81;;;6.14;57.29
79686;BME280;69153;47.918;11.428;2024-02-21T02:29:16;96026.19;;;6.14;57.14
79686;BME280;69153;47.918;11.428;2024-02-21T02:31:42;96023.16;;;6.08;56.82
79686;BME280;69153;47.918;11.428;2024-02-21T02:34:07;96017.78;;;5.91;56.99
79686;BME280;69153;47.918;11.428;2024-02-21T02:36:33;96019.31;;;5.99;56.90
79686;BME280;69153;47.918;11.428;2024-02-21T02:38:59;96010.66;;;5.95;57.18
79686;BME280;69153;47.918;11.428;2024-02-21T02:41:24;96018.25;;;6.07;56.61
79686;BME280;69153;47.918;11.428;2024-02-21T02:43:50;96017.88;;;6.05;57.08
79686;BME280;69153;47.918;11.428;2024-02-21T02:46:15;96013.00;;;6.07;56.92
79686;BME280;69153;47.918;11.428;2024-02-21T02:48:41;96012.94;;;6.00;57.30
79686;BME280;69153;47.918;11.428;2024-02-21T02:51:06;96013.38;;;6.05;56.88
79686;BME280;69153;47.918;11.428;2024-02-21T02:53:32;95991.53;;;6.01;57.03
79686;BME280;69153;47.918;11.428;2024-02-21T02:55:57;95996.41;;;5.99;56.95
79686;BME280;69153;47.918;11.428;2024-02-21T02:58:23;95986.22;;;5.91;57.33
79686;BME280;69153;47.918;11.428;2024-02-21T03:00:48;95985.13;;;5.95;57.50
79686;BME280;69153;47.918;11.428;2024-02-21T03:03:13;95994.13;;;5.98;57.12
79686;BME280;69153;47.918;11.428;2024-02-21T03:05:39;95984.41;;;6.02;57.10
79686;BME280;69153;47.918;11.428;2024-02-21T03:08:04;95978.06;;;6.10;56.81
79686;BME280;69153;47.918;11.428;2024-02-21T03:10:33;95982.19;;;6.11;56.80
79686;BME280;69153;47.918;11.428;2024-02-21T03:12:59;95974.69;;;6.13;56.89
79686;BME280;69153;47.918;11.428;2024-02-21T03:15:24;95973.97;;;6.16;56.81
79686;BME280;69153;47.918;11.428;2024-02-21T03:17:50;95984.50;;;6.20;57.08
79686;BME280;69153;47.918;11.428;2024-02-21T03:20:15;95978.47;;;6.16;56.63
79686;BME280;69153;47.918;11.428;2024-02-21T03:22:41;95976.56;;;6.13;56.68
79686;BME280;69153;47.918;11.428;2024-02-21T03:25:08;95975.47;;;6.17;56.90
79686;BME280;69153;47.918;11.428;2024-02-21T03:27:34;95979.25;;;6.20;56.71
79686;BME280;69153;47.918;11.428;2024-02-21T03:30:00;95970.22;;;6.17;56.70
79686;BME280;69153;47.918;11.428;2024-02-21T03:32:25;95974.69;;;6.13;56.92
79686;BME280;69153;47.918;11.428;2024-02-21T03:34:51;95969.81;;;6.15;56.50
79686;BME280;69153;47.918;11.428;2024-02-21T03:37:16;95972.13;;;6.20;56.83
79686;BME280;69153;47.918;11.428;2024-02-21T03:39:42;95970.59;;;6.19;57.03
79686;BME280;69153;47.918;11.428;2024-02-21T03:42:07;95972.13;;;6.24;57.02
79686;BME280;69153;47.918;11.428;2024-02-21T03:44:33;95970.63;;;6.23;56.99
79686;BME280;69153;47.918;11.428;2024-02-21T03:46:59;95969.13;;;6.22;57.27
79686;BME280;69153;47.918;11.428;2024-02-21T03:49:25;95965.72;;;6.18;57.32
79686;BME280;69153;47.918;11.428;2024-02-21T03:51:51;95965.34;;;6.19;57.58
79686;BME280;69153;47.918;11.428;2024-02-21T03:54:16;95966.09;;;6.20;57.54
79686;BME280;69153;47.918;11.428;2024-02-21T03:56:42;95964.59;;;6.19;57.12
79686;BME280;69153;47.918;11.428;2024-02-21T03:59:08;95967.94;;;6.16;57.49
79686;BME280;69153;47.918;11.428;2024-02-21T04:01:36;95968.69;;;6.16;57.76
79686;BME280;69153;47.918;11.428;2024-02-21T04:04:02;95961.94;;;6.15;57.76
79686;BME280;69153;47.918;11.428;2024-02-21T04:06:28;95964.19;;;6.17;57.46
79686;BME280;69153;47.918;11.428;2024-02-21T04:08:53;95971.34;;;6.23;57.44
79686;BME280;69153;47.918;11.428;2024-02-21T04:11:19;95966.06;;;6.16;57.72
79686;BME280;69153;47.918;11.428;2024-02-21T04:13:45;95964.59;;;6.19;57.29
79686;BME280;69153;47.918;11.428;2024-02-21T04:16:10;95960.38;;;6.10;57.84
79686;BME280;69153;47.918;11.428;2024-02-21T04:18:36;95961.91;;;6.08;58.00
79686;BME280;69153;47.918;11.428;2024-02-21T04:21:01;95965.66;;;6.07;57.75
79686;BME280;69153;47.918;11.428;2024-02-21T04:23:27;95951.03;;;6.09;58.01
79686;BME280;69153;47.918;11.428;2024-02-21T04:25:52;95953.66;;;6.13;57.74
79686;BME280;69153;47.918;11.428;2024-02-21T04:28:18;95940.41;;;5.99;57.53
79686;BME280;69153;47.918;11.428;2024-02-21T04:30:43;95936.28;;;5.98;57.46
79686;BME280;69153;47.918;11.428;2024-02-21T04:33:09;95934.38;;;5.91;57.56
79686;BME280;69153;47.918;11.428;2024-02-21T04:35:36;95938.53;;;5.96;57.74
79686;BME280;69153;47.918;11.428;2024-02-21T04:38:01;95934.78;;;5.97;57.61
79686;BME280;69153;47.918;11.428;2024-02-21T04:40:27;95930.66;;;5.96;57.58
79686;BME280;69153;47.918;11.428;2024-02-21T04:42:52;95929.13;;;5.98;57.45
79686;BME280;69153;47.918;11.428;2024-02-21T04:45:18;95922.72;;;5.92;57.41
79686;BME280;69153;47.918;11.428;2024-02-21T04:47:43;95924.53;;;5.85;57.77
79686;BME280;69153;47.918;11.428;2024-02-21T04:50:09;95920.75;;;5.79;57.74
79686;BME280;69153;47.918;11.428;2024-02-21T04:52:35;95920.03;;;5.82;57.90
79686;BME280;69153;47.918;11.428;2024-02-21T04:55:00;95921.53;;;5.83;57.71
79686;BME280;69153;47.918;11.428;2024-02-21T04:57:26;95914.72;;;5.78;57.95
79686;BME280;69153;47.918;11.428;2024-02-21T04:59:51;95907.56;;;5.75;57.52
79686;BME280;69153;47.918;11.428;2024-02-21T05:02:17;95907.19;;;5.73;57.84
79686;BME280;69153;47.918;11.428;2024-02-21T05:04:42;95899.97;;;5.59;58.09
79686;BME280;69153;47.918;11.428;2024-02-21T05:07:09;95900.34;;;5.61;58.26
79686;BME280;69153;47.918;11.428;2024-02-21T05:09:36;95905.63;;;5.65;58.03
79686;BME280;69153;47.918;11.428;2024-02-21T05:12:01;95900.00;;;5.66;57.88
79686;BME280;69153;47.918;11.428;2024-02-21T05:14:27;95888.38;;;5.67;57.66
79686;BME280;69153;47.918;11.428;2024-02-21T05:16:53;95883.84;;;5.64;57.81
79686;BME280;69153;47.918;11.428;2024-02-21T05:19:18;95888.72;;;5.62;57.70
79686;BME280;69153;47.918;11.428;2024-02-21T05:21:44;95881.59;;;5.63;58.37
79686;BME280;69153;47.918;11.428;2024-02-21T05:24:09;95880.09;;;5.65;58.29
79686;BME280;69153;47.918;11.428;2024-02-21T05:26:34;95871.06;;;5.63;58.11
79686;BME280;69153;47.918;11.428;2024-02-21T05:29:00;95872.56;;;5.60;58.13
79686;BME280;69153;47.918;11.428;2024-02-21T05:31:25;95864.28;;;5.58;58.20
79686;BME280;69153;47.918;11.428;2024-02-21T05:33:51;95865.78;;;5.56;58.42
79686;BME280;69153;47.918;11.428;2024-02-21T05:36:17;95868.41;;;5.56;58.34
79686;BME280;69153;47.918;11.428;2024-02-21T05:38:42;95864.25;;;5.51;58.17
79686;BME280;69153;47.918;11.428;2024-02-21T05:41:08;95866.09;;;5.47;57.93
79686;BME280;69153;47.918;11.428;2024-02-21T05:43:33;95858.25;;;5.51;58.08
79686;BME280;69153;47.918;11.428;2024-02-21T05:45:59;95854.78;;;5.39;58.51
79686;BME280;69153;47.918;11.428;2024-02-21T05:48:24;95851.81;;;5.41;58.03
79686;BME280;69153;47.918;11.428;2024-02-21T05:50:50;95848.34;;;5.30;58.52
79686;BME280;69153;47.918;11.428;2024-02-21T05:53:15;95844.94;;;5.26;58.42
79686;BME280;69153;47.918;11.428;2024-02-21T05:55:41;95835.13;;;5.16;58.84
79686;BME280;69153;47.918;11.428;2024-02-21T05:58:07;95836.63;;;5.17;58.73
79686;BME280;69153;47.918;11.428;2024-02-21T06:00:33;95824.22;;;5.14;58.86
79686;BME280;69153;47.918;11.428;2024-02-21T06:02:58;95826.50;;;5.15;58.68
79686;BME280;69153;47.918;11.428;2024-02-21T06:05:24;95823.47;;;5.13;58.31
79686;BME280;69153;47.918;11.428;2024-02-21T06:07:50;95820.44;;;5.11;58.28
79686;BME280;69153;47.918;11.428;2024-02-21T06:10:15;95806.88;;;5.02;58.47
79686;BME280;69153;47.918;11.428;2024-02-21T06:12:41;95818.16;;;5.02;58.55
79686;BME280;69153;47.918;11.428;2024-02-21T06:15:07;95813.22;;;4.97;58.56
79686;BME280;69153;47.918;11.428;2024-02-21T06:17:32;95812.88;;;4.99;58.02
79686;BME280;69153;47.918;11.428;2024-02-21T06:19:58;95806.16;;;5.05;58.13
79686;BME280;69153;47.918;11.428;2024-02-21T06:22:23;95812.94;;;5.06;58.48
79686;BME280;69153;47.918;11.428;2024-02-21T06:24:48;95805.41;;;5.08;58.33
79686;BME280;69153;47.918;11.428;2024-02-21T06:27:14;95809.53;;;5.06;58.41
79686;BME280;69153;47.918;11.428;2024-02-21T06:29:41;95799.47;;;5.15;58.49
79686;BME280;69153;47.918;11.428;2024-02-21T06:32:07;95801.91;;;5.45;57.60
79686;BME280;69153;47.918;11.428;2024-02-21T06:34:32;95797.44;;;5.56;57.32
79686;BME280;69153;47.918;11.428;2024-02-21T06:36:57;95804.97;;;5.61;57.08
79686;BME280;69153;47.918;11.428;2024-02-21T06:39:23;95812.84;;;5.57;57.06
79686;BME280;69153;47.918;11.428;2024-02-21T06:41:49;95804.97;;;5.61;57.02
79686;BME280;69153;47.918;11.428;2024-02-21T06:44:16;95808.38;;;5.65;57.00
79686;BME280;69153;47.918;11.428;2024-02-21T06:46:42;95796.81;;;5.87;56.85
79686;BME280;69153;47.918;11.428;2024-02-21T06:49:07;95815.75;;;6.18;56.46
79686;BME280;69153;47.918;11.428;2024-02-21T06:51:32;95815.84;;;6.60;54.83
79686;BME280;69153;47.918;11.428;2024-02-21T06:54:00;95813.97;;;7.00;53.40
79686;BME280;69153;47.918;11.428;2024-02-21T06:56:25;95814.69;;;6.58;54.29
79686;BME280;69153;47.918;11.428;2024-02-21T06:58:54;95816.56;;;6.36;54.48
79686;BME280;69153;47.918;11.428;2024-02-21T07:01:20;95808.97;;;6.17;54.84
79686;BME280;69153;47.918;11.428;2024-02-21T07:03:45;95804.06;;;6.12;55.15
79686;BME280;69153;47.918;11.428;2024-02-21T07:06:10;95800.28;;;6.02;55.29
79686;BME280;69153;47.918;11.428;2024-02-21T07:08:36;95807.41;;;5.98;55.74
79686;BME280;69153;47.918;11.428;2024-02-21T07:11:02;95804.41;;;5.99;54.97
79686;BME280;69153;47.918;11.428;2024-02-21T07:13:28;95802.91;;;5.95;54.76
79686;BME280;69153;47.918;11.428;2024-02-21T07:15:53;95807.44;;;6.05;54.80
79686;BME280;69153;47.918;11.428;2024-02-21T07:18:18;95805.59;;;6.16;54.66
79686;BME280;69153;47.918;11.428;2024-02-21T07:20:44;95805.59;;;6.20;54.06
79686;BME280;69153;47.918;11.428;2024-02-21T07:23:10;95798.88;;;6.33;53.71
79686;BME280;69153;47.918;11.428;2024-02-21T07:25:35;95801.09;;;6.27;53.70
79686;BME280;69153;47.918;11.428;2024-02-21T07:28:01;95801.13;;;6.31;53.64
79686;BME280;69153;47.918;11.428;2024-02-21T07:30:26;95807.50;;;6.37;54.38
79686;BME280;69153;47.918;11.428;2024-02-21T07:32:52;95811.28;;;6.36;54.06
79686;BME280;69153;47.918;11.428;2024-02-21T07:35:18;95802.25;;;6.33;53.64
79686;BME280;69153;47.918;11.428;2024-02-21T07:37:43;95796.97;;;6.30;53.77
79686;BME280;69153;47.918;11.428;2024-02-21T07:40:14;95794.72;;;6.32;53.78
79686;BME280;69153;47.918;11.428;2024-02-21T07:42:40;95789.81;;;6.27;53.86
79686;BME280;69153;47.918;11.428;2024-02-21T07:45:07;95785.72;;;6.54;53.55
79686;BME280;69153;47.918;11.428;2024-02-21T07:47:33;95787.22;;;6.55;53.23
79686;BME280;69153;47.918;11.428;2024-02-21T07:49:58;95780.84;;;6.92;52.59
79686;BME280;69153;47.918;11.428;2024-02-21T07:52:24;95778.59;;;6.94;52.02
79686;BME280;69153;47.918;11.428;2024-02-21T07:54:50;95772.91;;;7.24;51.13
79686;BME280;69153;47.918;11.428;2024-02-21T07:57:16;95761.97;;;7.32;50.83
79686;BME280;69153;47.918;11.428;2024-02-21T07:59:41;95762.28;;;7.45;50.23
79686;BME280;69153;47.918;11.428;2024-02-21T08:02:07;95741.25;;;7.31;51.17
79686;BME280;69153;47.918;11.428;2024-02-21T08:04:33;95737.06;;;7.47;50.84
79686;BME280;69153;47.918;11.428;2024-02-21T08:06:58;95741.09;;;7.73;50.31
79686;BME280;69153;47.918;11.428;2024-02-21T08:09:30;95734.78;;;8.30;49.02
79686;BME280;69153;47.918;11.428;2024-02-21T08:11:55;95719.88;;;10.27;44.28
79686;BME280;69153;47.918;11.428;2024-02-21T08:14:21;95705.88;;;11.79;40.83
79686;BME280;69153;47.918;11.428;2024-02-21T08:16:47;95698.41;;;13.04;38.32
79686;BME280;69153;47.918;11.428;2024-02-21T08:19:12;95706.66;;;14.05;36.18
79686;BME280;69153;47.918;11.428;2024-02-21T08:21:38;95702.09;;;15.47;33.48
79686;BME280;69153;47.918;11.428;2024-02-21T08:24:04;95692.91;;;16.32;32.08
79686;BME280;69153;47.918;11.428;2024-02-21T08:26:29;95692.44;;;16.83;30.87
79686;BME280;69153;47.918;11.428;2024-02-21T08:28:59;95684.69;;;17.76;29.75
79686;BME280;69153;47.918;11.428;2024-02-21T08:31:26;95683.34;;;18.46;28.08
79686;BME280;69153;47.918;11.428;2024-02-21T08:34:00;95679.00;;;18.82;27.86
79686;BME280;69153;47.918;11.428;2024-02-21T08:36:35;95678.50;;;19.75;26.17
79686;BME280;69153;47.918;11.428;2024-02-21T08:39:01;95675.63;;;19.49;25.93
79686;BME280;69153;47.918;11.428;2024-02-21T08:41:33;95675.97;;;20.16;25.07
79686;BME280;69153;47.918;11.428;2024-02-21T08:43:59;95671.94;;;20.41;24.66
79686;BME280;69153;47.918;11.428;2024-02-21T08:46:24;95667.59;;;21.50;23.41
79686;BME280;69153;47.918;11.428;2024-02-21T08:48:51;95663.66;;;20.09;23.54
79686;BME280;69153;47.918;11.428;2024-02-21T08:51:17;95675.63;;;19.49;23.95
79686;BME280;69153;47.918;11.428;2024-02-21T08:53:46;95663.63;;;20.99;22.53
79686;BME280;69153;47.918;11.428;2024-02-21T08:56:12;95665.34;;;22.00;21.48
79686;BME280;69153;47.918;11.428;2024-02-21T08:58:39;95664.75;;;22.22;21.10
79686;BME280;69153;47.918;11.428;2024-02-21T09:01:06;95653.53;;;22.77;20.44
79686;BME280;69153;47.918;11.428;2024-02-21T09:03:38;95653.66;;;23.11;20.14
79686;BME280;69153;47.918;11.428;2024-02-21T09:06:09;95659.53;;;23.04;19.76
79686;BME280;69153;47.918;11.428;2024-02-21T09:08:34;95657.25;;;23.62;20.06
79686;BME280;69153;47.918;11.428;2024-02-21T09:11:00;95654.09;;;22.44;20.04
79686;BME280;69153;47.918;11.428;2024-02-21T09:13:28;95661.56;;;23.20;19.73
79686;BME280;69153;47.918;11.428;2024-02-21T09:15:55;95654.97;;;23.49;18.95
79686;BME280;69153;47.918;11.428;2024-02-21T09:18:20;95646.66;;;23.86;18.81
79686;BME280;69153;47.918;11.428;2024-02-21T09:20:46;95641.25;;;24.25;18.59
79686;BME280;69153;47.918;11.428;2024-02-21T09:23:13;95652.78;;;24.31;18.50
79686;BME280;69153;47.918;11.428;2024-02-21T09:25:39;95646.63;;;24.03;18.51
79686;BME280;69153;47.918;11.428;2024-02-21T09:28:05;95649.09;;;23.78;18.51
79686;BME280;69153;47.918;11.428;2024-02-21T09:30:32;95641.38;;;24.61;17.94
79686;BME280;69153;47.918;11.428;2024-02-21T09:32:58;95640.44;;;24.52;18.15
79686;BME280;69153;47.918;11.428;2024-02-21T09:35:27;95639.88;;;25.28;17.44
79686;BME280;69153;47.918;11.428;2024-02-21T09:37:54;95649.66;;;24.85;17.04
79686;BME280;69153;47.918;11.428;2024-02-21T09:40:20;95646.13;;;25.12;16.75
79686;BME280;69153;47.918;11.428;2024-02-21T09:42:47;95649.34;;;25.52;16.41
79686;BME280;69153;47.918;11.428;2024-02-21T09:45:25;95657.19;;;25.96;16.11
79686;BME280;69153;47.918;11.428;2024-02-21T09:50:43;95649.72;;;27.56;14.26
79686;BME280;69153;47.918;11.428;2024-02-21T09:53:12;95645.34;;;27.98;14.36
79686;BME280;69153;47.918;11.428;2024-02-21T09:55:38;95642.13;;;26.93;14.46
79686;BME280;69153;47.918;11.428;2024-02-21T09:58:07;95639.16;;;26.72;14.57
79686;BME280;69153;47.918;11.428;2024-02-21T10:00:33;95640.13;;;25.60;15.23
79686;BME280;69153;47.918;11.428;2024-02-21T10:02:59;95644.63;;;25.17;15.81
79686;BME280;69153;47.918;11.428;2024-02-21T10:05:24;95644.66;;;25.11;15.99
79686;BME280;69153;47.918;11.428;2024-02-21T10:07:51;95634.13;;;25.43;15.47
79686;BME280;69153;47.918;11.428;2024-02-21T10:10:17;95636.97;;;25.62;14.93
79686;BME280;69153;47.918;11.428;2024-02-21T10:12:49;95631.44;;;25.73;15.26
79686;BME280;69153;47.918;11.428;2024-02-21T10:15:20;95631.31;;;24.44;15.71
79686;BME280;69153;47.918;11.428;2024-02-21T10:17:46;95635.78;;;24.31;16.25
79686;BME280;69153;47.918;11.428;2024-02-21T10:20:12;95632.34;;;24.36;15.88
79686;BME280;69153;47.918;11.428;2024-02-21T10:22:39;95628.44;;;24.03;16.64
79686;BME280;69153;47.918;11.428;2024-02-21T10:25:12;95637.16;;;24.71;16.04
79686;BME280;69153;47.918;11.428;2024-02-21T10:27:41;95635.97;;;24.66;15.75
79686;BME280;69153;47.918;11.428;2024-02-21T10:30:14;95624.59;;;25.67;14.81
79686;BME280;69153;47.918;11.428;2024-02-21T10:32:55;95616.13;;;25.76;14.57
79686;BME280;69153;47.918;11.428;2024-02-21T10:35:32;95614.97;;;25.30;15.60
79686;BME280;69153;47.918;11.428;2024-02-21T10:37:59;95603.78;;;25.04;15.59
79686;BME280;69153;47.918;11.428;2024-02-21T10:40:28;95606.94;;;25.08;15.93
79686;BME280;69153;47.918;11.428;2024-02-21T10:43:01;95589.22;;;25.42;15.60
79686;BME280;69153;47.918;11.428;2024-02-21T10:45:36;95591.56;;;23.56;17.16
79686;BME280;69153;47.918;11.428;2024-02-21T10:48:15;95586.88;;;23.50;17.28
79686;BME280;69153;47.918;11.428;2024-02-21T10:50:56;95572.00;;;22.79;17.75
79686;BME280;69153;47.918;11.428;2024-02-21T10:53:26;95564.63;;;22.85;18.51
79686;BME280;69153;47.918;11.428;2024-02-21T10:56:33;95560.25;;;22.28;17.52
79686;BME280;69153;47.918;11.428;2024-02-21T10:59:03;95552.78;;;22.06;18.47
79686;BME280;69153;47.918;11.428;2024-02-21T11:01:30;95541.22;;;22.60;17.95
79686;BME280;69153;47.918;11.428;2024-02-21T11:04:06;95543.44;;;22.61;18.42
79686;BME280;69153;47.918;11.428;2024-02-21T11:06:34;95536.31;;;22.58;18.26
79686;BME280;69153;47.918;11.428;2024-02-21T11:09:08;95532.16;;;21.66;18.97
79686;BME280;69153;47.918;11.428;2024-02-21T11:11:39;95528.25;;;22.10;18.29
79686;BME280;69153;47.918;11.428;2024-02-21T11:14:08;95515.78;;;22.18;17.79
79686;BME280;69153;47.918;11.428;2024-02-21T11:16:41;95515.78;;;23.05;16.80
79686;BME280;69153;47.918;11.428;2024-02-21T11:19:25;95508.69;;;23.19;17.17
79686;BME280;69153;47.918;11.428;2024-02-21T11:21:52;95499.31;;;23.26;17.98
79686;BME280;69153;47.918;11.428;2024-02-21T11:24:32;95494.94;;;21.76;17.41
79686;BME280;69153;47.918;11.428;2024-02-21T11:27:15;95492.81;;;21.49;18.49
79686;BME280;69153;47.918;11.428;2024-02-21T11:29:47;95486.84;;;20.76;19.02
79686;BME280;69153;47.918;11.428;2024-02-21T11:32:16;95484.13;;;21.02;19.46
79686;BME280;69153;47.918;11.428;2024-02-21T11:34:59;95473.63;;;21.10;19.71
79686;BME280;69153;47.918;11.428;2024-02-21T11:37:30;95471.16;;;20.49;20.08
79686;BME280;69153;47.918;11.428;2024-02-21T11:39:56;95460.94;;;20.12;20.35
79686;BME280;69153;47.918;11.428;2024-02-21T11:42:22;95459.94;;;19.19;21.29
79686;BME280;69153;47.918;11.428;2024-02-21T11:44:48;95454.41;;;18.79;21.21
79686;BME280;69153;47.918;11.428;2024-02-21T11:47:15;95452.63;;;19.05;20.69
79686;BME280;69153;47.918;11.428;2024-02-21T11:49:48;95446.81;;;18.24;22.07
79686;BME280;69153;47.918;11.428;2024-02-21T11:52:16;95450.72;;;18.38;22.06
79686;BME280;69153;47.918;11.428;2024-02-21T11:54:44;95439.81;;;19.15;21.52
79686;BME280;69153;47.918;11.428;2024-02-21T11:57:10;95429.97;;;20.22;20.59
79686;BME280;69153;47.918;11.428;2024-02-21T11:59:40;95423.59;;;20.97;19.61
79686;BME280;69153;47.918;11.428;2024-02-21T12:02:06;95414.81;;;21.02;19.45
79686;BME280;69153;47.918;11.428;2024-02-21T12:04:32;95414.25;;;21.24;19.59
79686;BME280;69153;47.918;11.428;2024-02-21T12:06:58;95403.78;;;21.00;19.46
79686;BME280;69153;47.918;11.428;2024-02-21T12:09:24;95406.16;;;19.69;20.70
79686;BME280;69153;47.918;11.428;2024-02-21T12:11:58;95396.47;;;19.57;20.76
79686;BME280;69153;47.918;11.428;2024-02-21T12:14:24;95391.69;;;19.67;20.54
79686;BME280;69153;47.918;11.428;2024-02-21T12:16:50;95390.16;;;19.60;20.12
79686;BME280;69153;47.918;11.428;2024-02-21T12:19:16;95388.31;;;20.12;20.39
79686;BME280;69153;47.918;11.428;2024-02-21T12:21:42;95375.34;;;20.68;19.41
79686;BME280;69153;47.918;11.428;2024-02-21T12:24:17;95381.13;;;20.55;18.44
79686;BME280;69153;47.918;11.428;2024-02-21T12:26:43;95377.00;;;20.34;18.37
79686;BME280;69153;47.918;11.428;2024-02-21T12:29:09;95368.75;;;20.69;18.42
79686;BME280;69153;47.918;11.428;2024-02-21T12:31:38;95363.38;;;20.17;19.29
79686;BME280;69153;47.918;11.428;2024-02-21T12:34:04;95364.88;;;18.82;20.53
79686;BME280;69153;47.918;11.428;2024-02-21T12:36:32;95358.22;;;18.04;21.19
79686;BME280;69153;47.918;11.428;2024-02-21T12:38:58;95350.91;;;18.48;21.72
79686;BME280;69153;47.918;11.428;2024-02-21T12:41:24;95349.44;;;19.12;20.31
79686;BME280;69153;47.918;11.428;2024-02-21T12:43:52;95340.00;;;18.81;21.28
79686;BME280;69153;47.918;11.428;2024-02-21T12:46:17;95334.63;;;18.37;21.51
79686;BME280;69153;47.918;11.428;2024-02-21T12:48:43;95326.28;;;18.50;20.81
79686;BME280;69153;47.918;11.428;2024-02-21T12:51:08;95324.53;;;18.32;21.54
79686;BME280;69153;47.918;11.428;2024-02-21T12:53:34;95322.41;;;18.21;21.45
79686;BME280;69153;47.918;11.428;2024-02-21T12:56:00;95314.16;;;17.81;21.55
79686;BME280;69153;47.918;11.428;2024-02-21T12:58:25;95314.28;;;17.87;21.45